.
WxDataArchive / Data Records for 2007-05-16
2007-05-15 May 2007 2007-05-17

Data Records for Wednesday, 16 May 2007

Time	Temp	Chill	HIndex	Humid	Dewpt	 Wind 	HiWind	WindDir	Rain 	Barom 
-----	----	-----	------	-----	-----	------	------	-------	-----	----- 
00:00	59.2	59.2	59.2	87	55.3	0	3	248	0.00	29.750 
00:05	59.2	59.2	59.2	86	55.0	0	0	---	0.00	29.750 
00:10	59.2	59.2	59.2	86	55.0	0	1	248	0.00	29.752 
00:15	59.3	59.3	59.3	86	55.1	0	0	---	0.00	29.752 
00:20	59.3	59.3	59.3	86	55.1	0	1	248	0.00	29.753 
00:25	59.3	59.3	59.3	86	55.1	0	1	248	0.00	29.752 
00:30	59.3	59.3	59.3	86	55.1	0	1	248	0.00	29.754 
00:35	59.3	59.3	59.3	86	55.1	0	1	248	0.00	29.755 
00:40	59.3	59.3	59.3	86	55.1	0	1	248	0.00	29.755 
00:45	59.3	59.3	59.3	86	55.1	0	1	248	0.00	29.753 
00:50	59.3	59.3	59.3	86	55.1	0	1	248	0.00	29.753 
00:55	59.3	59.3	59.3	86	55.1	0	1	248	0.00	29.752 
01:00	59.3	59.3	59.3	86	55.1	0	1	248	0.00	29.751 
01:05	59.2	59.2	59.2	87	55.3	0	1	270	0.00	29.749 
01:10	59.2	59.2	59.2	86	55.0	0	2	270	0.00	29.750 
01:15	59.2	59.2	59.2	87	55.3	0	1	270	0.00	29.746 
01:20	59.2	59.2	59.2	87	55.3	0	1	270	0.00	29.740 
01:25	59.2	59.2	59.2	87	55.3	0	1	270	0.00	29.743 
01:30	59.2	59.2	59.2	87	55.3	0	1	270	0.00	29.741 
01:35	59.2	59.2	59.2	87	55.3	0	2	248	0.00	29.738 
01:40	59.2	59.2	59.2	88	55.6	0	1	248	0.00	29.737 
01:45	59.2	59.2	59.2	88	55.6	0	2	248	0.00	29.737 
01:50	59.2	59.2	59.2	88	55.6	0	1	248	0.00	29.737 
01:55	59.2	59.2	59.2	88	55.6	0	2	248	0.00	29.737 
02:00	59.2	59.2	59.2	88	55.6	1	2	292	0.00	29.736 
02:05	59.0	59.0	59.0	88	55.4	1	5	338	0.00	29.737 
02:10	59.0	59.0	59.0	89	55.8	0	2	338	0.00	29.736 
02:15	59.0	59.0	59.0	89	55.8	0	1	338	0.00	29.736 
02:20	59.0	59.0	59.0	89	55.8	1	4	248	0.00	29.736 
02:25	58.9	58.9	58.9	89	55.7	0	2	315	0.00	29.733 
02:30	58.9	58.9	58.9	89	55.7	0	1	315	0.00	29.731 
02:35	58.9	58.9	58.9	89	55.7	0	1	315	0.00	29.730 
02:40	58.7	58.7	58.7	90	55.8	0	2	315	0.00	29.726 
02:45	58.7	58.7	58.7	90	55.8	1	2	315	0.00	29.723 
02:50	58.6	58.6	58.6	90	55.7	1	3	292	0.00	29.722 
02:55	58.6	58.6	58.6	90	55.7	1	3	292	0.00	29.723 
03:00	58.6	58.6	58.6	90	55.7	1	2	292	0.00	29.727 
03:05	58.6	58.6	58.6	90	55.7	0	2	315	0.00	29.728 
03:10	58.4	58.4	58.4	90	55.5	1	3	315	0.00	29.731 
03:15	58.4	58.4	58.4	90	55.5	0	2	315	0.00	29.732 
03:20	58.3	58.3	58.3	90	55.4	1	2	270	0.00	29.732 
03:25	58.3	58.3	58.3	89	55.1	1	2	292	0.00	29.733 
03:30	58.3	58.3	58.3	89	55.1	1	3	292	0.00	29.731 
03:35	58.3	58.3	58.3	89	55.1	1	3	315	0.00	29.729 
03:40	58.4	58.4	58.4	89	55.2	0	3	315	0.00	29.732 
03:45	58.3	58.3	58.3	88	54.8	1	5	292	0.00	29.736 
03:50	58.3	58.3	58.3	88	54.8	1	3	292	0.00	29.734 
03:55	58.3	58.3	58.3	88	54.8	1	4	292	0.00	29.737 
04:00	58.1	58.1	58.1	88	54.6	1	3	270	0.00	29.738 
04:05	58.1	58.1	58.1	88	54.6	1	4	315	0.00	29.750 
04:10	58.0	58.0	58.0	88	54.5	1	4	292	0.00	29.750 
04:15	57.6	57.6	57.6	87	53.8	1	3	292	0.00	29.750 
04:20	57.6	57.6	57.6	87	53.8	1	5	292	0.00	29.751 
04:25	57.5	57.5	57.5	87	53.7	1	3	270	0.00	29.753 
04:30	57.5	57.5	57.5	86	53.3	1	3	270	0.00	29.752 
04:35	57.5	57.5	57.5	85	53.0	1	4	315	0.00	29.750 
04:40	57.3	57.3	57.3	84	52.5	1	4	270	0.00	29.755 
04:45	57.3	57.3	57.3	85	52.8	1	4	270	0.00	29.755 
04:50	57.2	57.2	57.2	86	53.0	1	3	338	0.00	29.755 
04:55	57.2	57.2	57.2	86	53.0	0	2	270	0.00	29.754 
05:00	56.9	56.9	56.9	86	52.8	1	4	248	0.00	29.758 
05:05	56.9	56.9	56.9	86	52.8	1	2	315	0.00	29.758 
05:10	56.7	56.7	56.7	86	52.6	1	2	315	0.00	29.761 
05:15	56.6	56.6	56.6	86	52.5	1	4	270	0.00	29.766 
05:20	56.6	56.6	56.6	86	52.5	1	2	315	0.00	29.768 
05:25	56.6	56.6	56.6	86	52.5	2	7	315	0.00	29.770 
05:30	56.7	56.7	56.7	86	52.6	1	3	315	0.00	29.772 
05:35	56.7	56.7	56.7	86	52.6	1	3	338	0.00	29.773 
05:40	56.7	56.7	56.7	86	52.6	1	4	270	0.00	29.774 
05:45	56.7	56.7	56.7	85	52.2	1	5	292	0.00	29.776 
05:50	56.6	56.6	56.6	85	52.1	2	5	270	0.00	29.778 
05:55	56.6	56.6	56.6	85	52.1	1	3	292	0.00	29.777 
06:00	56.5	56.5	56.5	84	51.7	2	5	292	0.00	29.783 
06:05	56.5	56.5	56.5	84	51.7	1	5	292	0.00	29.785 
06:10	56.3	56.3	56.3	85	51.8	1	3	270	0.00	29.785 
06:15	56.3	56.3	56.3	85	51.8	1	4	248	0.00	29.789 
06:20	56.2	56.2	56.2	85	51.7	1	5	315	0.00	29.790 
06:25	56.0	56.0	56.0	85	51.6	1	4	315	0.00	29.792 
06:30	55.9	55.9	55.9	86	51.8	1	4	315	0.00	29.795 
06:35	55.7	55.7	55.7	87	51.9	2	5	270	0.00	29.797 
06:40	55.7	55.7	55.7	87	51.9	1	3	315	0.00	29.800 
06:45	55.6	55.6	55.6	87	51.8	2	5	270	0.00	29.803 
06:50	55.3	55.3	55.3	88	51.8	3	6	270	0.00	29.805 
06:55	55.0	55.0	55.0	88	51.5	3	9	315	0.00	29.807 
07:00	54.5	54.5	54.5	88	51.0	2	5	315	0.00	29.809 
07:05	53.9	53.9	53.9	88	50.4	2	8	315	0.00	29.810 
07:10	53.3	53.3	53.3	89	50.1	2	9	292	0.00	29.810 
07:15	52.9	52.9	52.9	90	50.0	3	6	292	0.00	29.818 
07:20	52.8	52.8	52.8	90	49.9	2	4	270	0.00	29.821 
07:25	52.5	52.5	52.5	90	49.7	1	4	270	0.00	29.823 
07:30	52.5	52.5	52.5	88	49.0	2	4	248	0.00	29.824 
07:35	52.6	52.6	52.6	87	48.8	1	3	338	0.00	29.824 
07:40	52.6	52.6	52.6	86	48.5	1	5	292	0.00	29.824 
07:45	52.6	52.6	52.6	86	48.5	1	4	315	0.00	29.829 
07:50	52.5	52.5	52.5	85	48.1	2	6	292	0.00	29.833 
07:55	52.3	52.3	52.3	84	47.6	3	5	315	0.00	29.836 
08:00	52.5	52.5	52.5	84	47.8	3	6	270	0.00	29.839 
08:05	52.5	52.5	52.5	84	47.8	1	3	292	0.00	29.840 
08:10	52.6	52.6	52.6	84	47.9	2	5	270	0.00	29.841 
08:15	52.2	52.2	52.2	82	46.9	3	7	270	0.00	29.847 
08:20	52.0	52.0	52.0	82	46.7	2	5	270	0.00	29.849 
08:25	51.9	51.9	51.9	82	46.6	2	5	248	0.00	29.854 
08:30	51.6	51.6	51.6	82	46.3	2	5	270	0.00	29.856 
08:35	51.6	51.6	51.6	82	46.3	3	6	270	0.00	29.854 
08:40	51.6	51.6	51.6	82	46.3	2	6	270	0.00	29.856 
08:45	51.9	51.9	51.9	81	46.3	2	6	270	0.00	29.857 
08:50	52.2	52.2	52.2	81	46.5	2	4	270	0.00	29.858 
08:55	52.2	52.2	52.2	80	46.2	3	6	270	0.00	29.857 
09:00	51.9	51.9	51.9	79	45.6	3	7	315	0.00	29.861 
09:05	51.9	51.9	51.9	79	45.6	3	7	315	0.00	29.867 
09:10	52.2	52.2	52.2	78	45.5	3	6	292	0.00	29.867 
09:15	52.6	52.6	52.6	78	45.9	4	7	270	0.00	29.871 
09:20	52.6	52.6	52.6	78	45.9	3	9	292	0.00	29.872 
09:25	52.6	52.6	52.6	78	45.9	3	6	270	0.00	29.873 
09:30	52.8	52.8	52.8	78	46.1	3	9	270	0.00	29.873 
09:35	53.1	53.1	53.1	76	45.7	3	5	270	0.00	29.873 
09:40	52.8	52.8	52.8	77	45.8	3	7	270	0.00	29.874 
09:45	52.9	52.9	52.9	75	45.2	4	11	270	0.00	29.881 
09:50	52.9	52.9	52.9	74	44.8	3	10	292	0.00	29.884 
09:55	53.9	53.9	53.9	74	45.8	2	6	292	0.00	29.880 
10:00	53.8	53.8	53.8	72	45.0	4	9	292	0.00	29.886 
10:05	53.1	53.1	53.1	72	44.3	4	11	292	0.00	29.892 
10:10	52.9	52.9	52.9	73	44.5	4	10	292	0.00	29.893 
10:15	52.9	52.9	52.9	72	44.1	3	10	292	0.00	29.897 
10:20	52.5	52.5	52.5	72	43.7	4	10	292	0.00	29.898 
10:25	52.3	52.3	52.3	73	43.9	4	10	270	0.00	29.907 
10:30	52.6	52.6	52.6	73	44.2	3	9	315	0.00	29.906 
10:35	53.2	53.2	53.2	72	44.4	2	7	292	0.00	29.906 
10:40	53.6	53.6	53.6	72	44.8	3	9	292	0.00	29.908 
10:45	53.6	53.6	53.6	70	44.1	3	7	315	0.00	29.908 
10:50	53.6	53.6	53.6	69	43.7	3	8	292	0.00	29.913 
10:55	53.3	53.3	53.3	70	43.8	4	9	292	0.00	29.914 
11:00	53.5	53.5	53.5	71	44.3	2	5	270	0.00	29.914 
11:05	53.5	53.5	53.5	69	43.6	3	9	292	0.00	29.915 
11:10	53.3	53.3	53.3	69	43.4	3	6	315	0.00	29.912 
11:15	54.1	54.1	54.1	71	44.9	2	4	292	0.00	29.915 
11:20	54.4	54.4	54.4	68	44.1	3	6	270	0.00	29.916 
11:25	54.5	54.5	54.5	69	44.5	2	5	315	0.00	29.915 
11:30	54.5	54.5	54.5	68	44.2	3	7	315	0.00	29.916 
11:35	53.8	53.8	53.8	68	43.5	4	12	270	0.00	29.922 
11:40	54.2	54.2	54.2	69	44.3	2	6	315	0.00	29.923 
11:45	54.2	54.2	54.2	67	43.5	3	5	315	0.00	29.925 
11:50	54.7	54.7	54.7	67	44.0	3	7	338	0.00	29.923 
11:55	55.3	55.3	55.3	69	45.3	1	4	270	0.00	29.923 
12:00	55.6	55.6	55.6	65	44.0	3	7	270	0.00	29.922 
12:05	55.3	55.3	55.3	64	43.3	3	7	270	0.00	29.922 
12:10	54.8	54.8	54.8	65	43.3	3	6	315	0.00	29.926 
12:15	54.8	54.8	54.8	67	44.1	2	4	315	0.00	29.928 
12:20	54.4	54.4	54.4	67	43.7	2	5	270	0.00	29.929 
12:25	54.4	54.4	54.4	66	43.3	2	7	292	0.00	29.933 
12:30	54.8	54.8	54.8	66	43.7	3	9	270	0.00	29.931 
12:35	54.8	54.8	54.8	65	43.3	3	7	315	0.00	29.933 
12:40	54.8	54.8	54.8	64	42.9	3	7	338	0.00	29.932 
12:45	55.1	55.1	55.1	64	43.1	3	9	315	0.00	29.932 
12:50	55.1	55.1	55.1	64	43.1	3	7	292	0.00	29.935 
12:55	55.1	55.1	55.1	65	43.5	3	9	315	0.00	29.933 
13:00	55.6	55.6	55.6	64	43.6	3	9	292	0.00	29.935 
13:05	55.9	55.9	55.9	63	43.5	2	7	270	0.00	29.935 
13:10	56.0	56.0	56.0	62	43.2	3	10	315	0.00	29.938 
13:15	56.2	56.2	56.2	61	42.9	4	8	315	0.00	29.937 
13:20	56.7	56.7	56.7	63	44.2	3	6	315	0.00	29.936 
13:25	57.2	57.2	57.2	60	43.4	3	9	292	0.00	29.937 
13:30	57.2	57.2	57.2	62	44.3	3	7	315	0.00	29.936 
13:35	57.0	57.0	57.0	59	42.8	3	6	315	0.00	29.937 
13:40	56.9	56.9	56.9	61	43.6	4	9	270	0.00	29.937 
13:45	56.7	56.7	56.7	61	43.4	4	9	270	0.00	29.941 
13:50	57.0	57.0	57.0	62	44.1	4	11	270	0.00	29.938 
13:55	56.9	56.9	56.9	59	42.7	3	7	292	0.00	29.940 
14:00	57.2	57.2	57.2	58	42.6	4	6	292	0.00	29.938 
14:05	57.2	57.2	57.2	60	43.4	3	7	315	0.00	29.940 
14:10	57.3	57.3	57.3	58	42.6	4	12	292	0.00	29.940 
14:15	56.9	56.9	56.9	60	43.2	3	6	315	0.00	29.942 
14:20	56.7	56.7	56.7	57	41.6	4	10	292	0.00	29.942 
14:25	57.6	57.6	57.6	58	42.9	3	11	270	0.00	29.943 
14:30	57.6	57.6	57.6	55	41.6	3	10	292	0.00	29.945 
14:35	58.0	58.0	58.0	55	41.9	3	6	292	0.00	29.940 
14:40	58.1	58.1	58.1	55	42.0	3	10	292	0.00	29.946 
14:45	58.3	58.3	58.3	54	41.7	4	9	315	0.00	29.945 
14:50	58.0	58.0	58.0	54	41.4	3	7	292	0.00	29.941 
14:55	58.6	58.6	58.6	53	41.5	3	9	270	0.00	29.941 
15:00	58.9	58.9	58.9	52	41.3	3	8	338	0.00	29.940 
15:05	58.9	58.9	58.9	52	41.3	3	9	292	0.00	29.946 
15:10	58.9	58.9	58.9	50	40.3	3	9	292	0.00	29.946 
15:15	58.9	58.9	58.9	49	39.8	3	9	270	0.00	29.946 
15:20	59.0	59.0	59.0	49	39.9	3	7	315	0.00	29.946 
15:25	59.0	59.0	59.0	47	38.8	4	13	292	0.00	29.947 
15:30	59.0	59.0	59.0	47	38.8	4	10	315	0.00	29.938 
15:35	59.0	59.0	59.0	46	38.2	3	9	270	0.00	29.939 
15:40	59.3	59.3	59.3	46	38.5	2	7	315	0.00	29.941 
15:45	59.0	59.0	59.0	47	38.8	4	11	292	0.00	29.942 
15:50	59.6	59.6	59.6	48	39.9	2	5	315	0.00	29.944 
15:55	59.3	59.3	59.3	47	39.1	3	7	292	0.00	29.945 
16:00	59.3	59.3	59.3	46	38.5	3	7	270	0.00	29.950 
16:05	59.6	59.6	59.6	45	38.2	3	5	270	0.00	29.950 
16:10	59.3	59.3	59.3	45	38.0	3	7	270	0.00	29.952 
16:15	59.2	59.2	59.2	43	36.7	4	9	292	0.00	29.953 
16:20	59.3	59.3	59.3	46	38.5	2	5	338	0.00	29.952 
16:25	59.3	59.3	59.3	46	38.5	2	7	338	0.00	29.952 
16:30	59.5	59.5	59.5	44	37.6	2	5	315	0.00	29.953 
16:35	59.3	59.3	59.3	43	36.8	3	9	315	0.00	29.956 
16:40	59.0	59.0	59.0	43	36.5	3	7	292	0.00	29.957 
16:45	58.7	58.7	58.7	46	38.0	2	5	0	0.00	29.956 
16:50	58.9	58.9	58.9	43	36.4	3	7	292	0.00	29.957 
16:55	58.9	58.9	58.9	45	37.6	2	6	315	0.00	29.961 
17:00	58.7	58.7	58.7	43	36.3	2	5	292	0.00	29.961 
17:05	58.6	58.6	58.6	45	37.3	2	6	270	0.00	29.961 
17:10	58.6	58.6	58.6	45	37.3	2	6	315	0.00	29.959 
17:15	58.6	58.6	58.6	43	36.2	2	6	315	0.00	29.962 
17:20	58.3	58.3	58.3	49	39.2	2	6	315	0.00	29.966 
17:25	58.1	58.1	58.1	45	36.9	2	5	315	0.00	29.968 
17:30	57.8	57.8	57.8	46	37.2	2	5	315	0.00	29.966 
17:35	57.8	57.8	57.8	46	37.2	3	10	270	0.00	29.964 
17:40	57.6	57.6	57.6	45	36.4	2	5	315	0.00	29.965 
17:45	57.5	57.5	57.5	44	35.8	3	6	315	0.00	29.965 
17:50	57.2	57.2	57.2	44	35.5	3	10	270	0.00	29.969 
17:55	57.0	57.0	57.0	43	34.7	3	10	292	0.00	29.970 
18:00	56.9	56.9	56.9	44	35.2	1	5	315	0.00	29.969 
18:05	56.9	56.9	56.9	46	36.3	1	5	292	0.00	29.969 
18:10	56.9	56.9	56.9	49	37.9	1	5	292	0.00	29.970 
18:15	56.9	56.9	56.9	49	37.9	1	6	292	0.00	29.971 
18:20	57.0	57.0	57.0	48	37.5	1	3	292	0.00	29.972 
18:25	56.7	56.7	56.7	49	37.8	2	5	292	0.00	29.973 
18:30	56.7	56.7	56.7	50	38.3	1	3	270	0.00	29.974 
18:35	56.6	56.6	56.6	50	38.2	1	9	270	0.00	29.973 
18:40	56.3	56.3	56.3	48	36.9	1	6	315	0.00	29.973 
18:45	56.0	56.0	56.0	49	37.1	1	3	315	0.00	29.977 
18:50	55.9	55.9	55.9	49	37.0	1	4	292	0.00	29.981 
18:55	55.7	55.7	55.7	49	36.8	1	4	315	0.00	29.982 
19:00	55.6	55.6	55.6	49	36.7	1	4	315	0.00	29.984 
19:05	55.3	55.3	55.3	50	37.0	1	3	292	0.00	29.987 
19:10	55.1	55.1	55.1	51	37.3	1	3	292	0.00	29.987 
19:15	55.0	55.0	55.0	50	36.7	0	3	292	0.00	29.987 
19:20	54.5	54.5	54.5	51	36.7	0	2	270	0.00	29.988 
19:25	54.2	54.2	54.2	52	37.0	0	3	270	0.00	29.989 
19:30	54.1	54.1	54.1	51	36.4	1	3	270	0.00	29.990 
19:35	53.8	53.8	53.8	51	36.1	0	2	338	0.00	29.991 
19:40	53.5	53.5	53.5	51	35.8	0	3	292	0.00	29.991 
19:45	53.3	53.3	53.3	52	36.1	0	2	270	0.00	29.991 
19:50	53.1	53.1	53.1	52	35.9	0	2	270	0.00	29.992 
19:55	52.8	52.8	52.8	54	36.6	0	1	270	0.00	29.992 
20:00	52.5	52.5	52.5	54	36.3	0	1	270	0.00	29.996 
20:05	52.3	52.3	52.3	55	36.6	0	1	270	0.00	29.997 
20:10	52.0	52.0	52.0	56	36.8	0	0	---	0.00	29.998 
20:15	51.7	51.7	51.7	58	37.4	0	0	---	0.00	29.998 
20:20	51.4	51.4	51.4	59	37.6	0	0	---	0.00	30.004 
20:25	51.1	51.1	51.1	60	37.7	0	0	---	0.00	30.008 
20:30	50.8	50.8	50.8	62	38.3	0	0	---	0.00	30.008 
20:35	50.2	50.2	50.2	61	37.3	0	0	---	0.00	30.008 
20:40	49.8	49.8	49.8	63	37.7	0	0	---	0.00	30.007 
20:45	49.4	49.4	49.4	65	38.1	0	0	---	0.00	30.008 
20:50	48.9	48.9	48.9	65	37.7	0	0	---	0.00	30.007 
20:55	48.5	48.5	48.5	67	38.0	0	0	---	0.00	30.009 
21:00	47.9	47.9	47.9	68	37.9	0	0	---	0.00	30.012 
21:05	47.4	47.4	47.4	70	38.1	0	0	---	0.00	30.014 
21:10	47.1	47.1	47.1	71	38.2	0	0	---	0.00	30.018 
21:15	46.8	46.8	46.8	73	38.6	0	0	---	0.00	30.024 
21:20	46.7	46.7	46.7	74	38.9	0	0	---	0.00	30.027 
21:25	46.7	46.7	46.7	75	39.2	0	0	---	0.00	30.027 
21:30	46.7	46.7	46.7	77	39.9	0	0	---	0.00	30.027 
21:35	46.8	46.8	46.8	77	40.0	0	0	---	0.00	30.028 
21:40	47.0	47.0	47.0	78	40.5	0	0	---	0.00	30.028 
21:45	47.1	47.1	47.1	77	40.3	0	0	---	0.00	30.028 
21:50	47.4	47.4	47.4	77	40.6	0	0	---	0.00	30.028 
21:55	47.7	47.7	47.7	77	40.8	0	0	---	0.00	30.027 
22:00	47.9	47.9	47.9	77	41.0	0	0	---	0.00	30.028 
22:05	48.0	48.0	48.0	75	40.5	0	0	---	0.00	30.027 
22:10	48.3	48.3	48.3	74	40.4	0	0	---	0.00	30.026 
22:15	48.8	48.8	48.8	71	39.8	0	0	---	0.00	30.027 
22:20	49.2	49.2	49.2	69	39.5	0	0	---	0.00	30.026 
22:25	49.6	49.6	49.6	68	39.5	0	0	---	0.00	30.023 
22:30	49.9	49.9	49.9	67	39.4	0	0	---	0.00	30.017 
22:35	50.1	50.1	50.1	67	39.6	0	0	---	0.00	30.010 
22:40	50.2	50.2	50.2	66	39.3	0	0	---	0.00	30.015 
22:45	50.4	50.4	50.4	66	39.5	0	0	---	0.00	30.012 
22:50	50.4	50.4	50.4	66	39.5	0	0	---	0.00	30.014 
22:55	50.4	50.4	50.4	67	39.9	0	0	---	0.00	30.010 
23:00	50.4	50.4	50.4	67	39.9	0	0	---	0.00	30.011 
23:05	50.4	50.4	50.4	69	40.6	0	0	---	0.00	30.008 
23:10	50.4	50.4	50.4	69	40.6	0	0	---	0.00	30.007 
23:15	50.4	50.4	50.4	69	40.6	0	0	---	0.00	30.005 
23:20	50.2	50.2	50.2	69	40.4	0	0	---	0.00	30.007 
23:25	50.2	50.2	50.2	70	40.8	0	0	---	0.00	30.008 
23:30	50.2	50.2	50.2	70	40.8	0	0	---	0.00	30.007 
23:35	50.2	50.2	50.2	72	41.5	0	0	---	0.00	30.007 
23:40	50.2	50.2	50.2	74	42.2	0	0	---	0.00	30.008 
23:45	49.9	49.9	49.9	73	41.6	0	0	---	0.00	30.008 
23:50	49.9	49.9	49.9	75	42.3	0	0	---	0.00	30.008 
23:55	49.8	49.8	49.8	76	42.5	0	0	---	0.00	30.009 

CoCoRaHS
IN-AL-39
A2 Web Hosting
Creative Commons License
GoDaddy
Look for:

loaded 2017-12-12 15:00:52 • last modified 2010-11-18 10:43:29
Privacy PolicyDisclaimer
• wx.awcolley.com is powered by PmWiki v.2002016 •
• all content (unless otherwise noted) © 2017 A W Colley